Time;durP1;ratioP1;P1;durP2;ratioP2;P2;SDS_P1;SDS_P2;PMS_P1;PMS_P2;Temp;Humidity;BMP_temperature;BMP_pressure;BME280_temperature;BME280_humidity;BME280_pressure;Samples;Min_cycle;Max_cycle;Signal;HPM_P1;HPM_P2
2022/10/18 00:00:58;;;;;;;4.95;3.90;;;18.50;99.90;;;;;;5054553;28;20199;-91
2022/10/18 00:03:24;;;;;;;6.63;4.53;;;18.40;99.90;;;;;;5054703;28;20172;-90
2022/10/18 00:05:50;;;;;;;4.13;3.28;;;18.30;99.90;;;;;;5054348;28;20266;-79
2022/10/18 00:08:17;;;;;;;6.22;4.60;;;18.30;99.90;;;;;;5053953;28;20253;-79
2022/10/18 00:10:43;;;;;;;5.65;4.28;;;18.30;99.90;;;;;;5054202;28;20171;-90
2022/10/18 00:13:08;;;;;;;4.57;4.18;;;18.30;99.90;;;;;;5053931;28;20189;-79
2022/10/18 00:15:34;;;;;;;6.40;4.30;;;18.30;99.90;;;;;;5052914;28;20190;-80
2022/10/18 00:17:59;;;;;;;7.25;3.97;;;18.20;99.90;;;;;;5054064;28;20626;-79
2022/10/18 00:20:25;;;;;;;5.25;4.75;;;18.10;99.90;;;;;;5053619;28;20191;-84
2022/10/18 00:22:51;;;;;;;19.45;4.00;;;18.10;99.90;;;;;;5053724;28;20250;-91
2022/10/18 00:25:17;;;;;;;11.07;4.28;;;18.10;99.90;;;;;;5054113;28;20197;-79
2022/10/18 00:27:43;;;;;;;5.25;4.18;;;18.20;99.90;;;;;;5053663;28;20178;-80
2022/10/18 00:30:09;;;;;;;4.75;4.20;;;18.20;99.90;;;;;;5053699;28;20167;-79
2022/10/18 00:32:39;;;;;;;4.90;4.50;;;18.20;99.90;;;;;;5053573;28;20250;-78
2022/10/18 00:35:05;;;;;;;4.30;3.97;;;18.30;99.90;;;;;;5053716;28;20198;-79
2022/10/18 00:37:31;;;;;;;5.50;4.30;;;18.30;99.90;;;;;;5053413;28;20175;-79
2022/10/18 00:39:57;;;;;;;4.18;3.78;;;18.30;99.90;;;;;;5052177;28;20543;-79
2022/10/18 00:42:30;;;;;;;4.57;3.97;;;18.30;99.90;;;;;;5053067;28;20163;-90
2022/10/18 00:45:01;;;;;;;4.57;3.80;;;18.20;99.90;;;;;;5053454;28;20621;-79
2022/10/18 00:47:28;;;;;;;6.15;3.90;;;18.20;99.90;;;;;;5060000;28;20258;-78
2022/10/18 00:49:56;;;;;;;4.78;4.38;;;18.30;99.90;;;;;;5073046;28;20517;-78
2022/10/18 00:52:31;;;;;;;7.38;3.80;;;18.20;99.90;;;;;;5056549;28;20171;-91
2022/10/18 00:54:57;;;;;;;5.72;4.00;;;18.10;99.90;;;;;;5053477;28;20739;-79
2022/10/18 00:57:24;;;;;;;6.95;4.28;;;18.10;99.90;;;;;;5052763;28;20190;-79
2022/10/18 00:59:50;;;;;;;13.07;4.30;;;18.00;99.90;;;;;;5051880;28;20170;-79
2022/10/18 01:02:17;;;;;;;15.13;4.03;;;18.00;99.90;;;;;;5053164;28;20186;-79
2022/10/18 01:04:46;;;;;;;4.03;3.63;;;18.10;99.90;;;;;;5052852;28;20164;-79
2022/10/18 01:07:12;;;;;;;5.75;4.22;;;18.10;99.90;;;;;;5051772;28;20194;-79
2022/10/18 01:09:44;;;;;;;6.35;4.25;;;18.10;99.90;;;;;;5053079;28;20585;-79
2022/10/18 01:12:28;;;;;;;4.15;3.75;;;18.10;99.90;;;;;;5051569;28;20209;-78
2022/10/18 01:15:17;;;;;;;4.68;4.22;;;18.10;99.90;;;;;;5052714;28;20274;-78
2022/10/18 01:17:57;;;;;;;3.95;3.25;;;18.20;99.90;;;;;;5050732;28;20588;-81
2022/10/18 01:20:29;;;;;;;5.00;3.95;;;18.10;99.90;;;;;;5050033;28;20627;-82
2022/10/18 01:23:41;;;;;;;4.82;4.00;;;18.00;99.90;;;;;;5051045;28;20174;-78
2022/10/18 01:26:28;;;;;;;3.88;3.58;;;18.00;99.90;;;;;;4991176;28;20276;-79
2022/10/18 01:29:18;;;;;;;6.03;3.83;;;18.10;99.90;;;;;;4991368;28;20209;-91
2022/10/18 01:31:49;;;;;;;7.72;3.92;;;18.20;99.90;;;;;;5038437;28;20663;-79
2022/10/18 01:34:17;;;;;;;8.23;3.78;;;18.20;99.90;;;;;;5052663;28;20250;-79
2022/10/18 01:36:55;;;;;;;3.90;3.58;;;18.10;99.90;;;;;;5052337;28;20727;-79
2022/10/18 01:39:25;;;;;;;8.93;4.10;;;18.10;99.90;;;;;;5052537;28;20167;-79
2022/10/18 01:41:52;;;;;;;4.18;3.78;;;18.10;99.90;;;;;;5051147;28;20207;-79
2022/10/18 01:44:23;;;;;;;4.18;3.83;;;18.10;99.90;;;;;;5052556;28;20254;-78
2022/10/18 01:46:51;;;;;;;5.75;4.15;;;18.10;99.90;;;;;;5051990;28;20183;-79
2022/10/18 01:49:17;;;;;;;5.35;3.83;;;18.00;99.90;;;;;;5052195;28;20172;-79
2022/10/18 01:51:43;;;;;;;4.47;4.03;;;18.10;99.90;;;;;;5052359;28;20186;-79
2022/10/18 01:54:11;;;;;;;7.90;4.10;;;18.00;99.90;;;;;;5052316;28;20237;-79
2022/10/18 01:56:42;;;;;;;9.30;4.18;;;17.90;99.90;;;;;;5052149;28;20193;-80
2022/10/18 01:59:37;;;;;;;6.45;4.30;;;18.00;99.90;;;;;;5052339;28;20174;-79
2022/10/18 02:02:34;;;;;;;7.28;4.47;;;18.10;99.90;;;;;;5057777;28;20234;-79
2022/10/18 02:05:13;;;;;;;8.10;4.40;;;18.10;99.90;;;;;;5049397;28;20270;-79
2022/10/18 02:08:06;;;;;;;14.40;3.92;;;18.20;99.90;;;;;;5051949;28;20672;-79
2022/10/18 02:10:38;;;;;;;7.50;4.20;;;18.20;99.90;;;;;;5051978;28;20160;-79
2022/10/18 02:13:04;;;;;;;4.47;4.05;;;18.30;99.90;;;;;;5050704;28;20183;-78
2022/10/18 02:15:33;;;;;;;4.10;3.80;;;18.20;99.90;;;;;;5050701;28;20676;-79
2022/10/18 02:18:02;;;;;;;5.43;4.28;;;18.30;99.90;;;;;;5051787;28;20175;-79
2022/10/18 02:20:31;;;;;;;4.20;3.90;;;18.20;99.90;;;;;;5052032;28;20226;-79
2022/10/18 02:22:58;;;;;;;4.72;4.32;;;18.10;99.90;;;;;;5052153;28;20174;-79
2022/10/18 02:25:27;;;;;;;6.68;3.85;;;18.10;99.90;;;;;;5051970;28;20230;-78
2022/10/18 02:27:53;;;;;;;4.38;3.97;;;18.20;99.90;;;;;;5052051;28;20151;-90
2022/10/18 02:30:24;;;;;;;4.72;4.20;;;18.20;99.90;;;;;;5052892;28;20344;-90
2022/10/18 02:32:57;;;;;;;5.13;4.57;;;18.30;99.90;;;;;;5054615;28;20178;-79
2022/10/18 02:35:31;;;;;;;4.90;4.50;;;18.20;99.90;;;;;;5055751;28;20187;-78
2022/10/18 02:37:58;;;;;;;5.38;4.88;;;18.30;99.90;;;;;;5055876;28;20159;-79
2022/10/18 02:40:25;;;;;;;5.07;4.60;;;18.30;99.90;;;;;;5055428;28;20199;-79
2022/10/18 02:42:54;;;;;;;7.13;4.47;;;18.30;99.90;;;;;;5055807;28;20221;-79
2022/10/18 02:45:20;;;;;;;6.20;4.63;;;18.30;99.90;;;;;;5055191;28;20246;-78
2022/10/18 02:47:46;;;;;;;7.05;4.82;;;18.30;99.90;;;;;;5055402;28;20259;-79
2022/10/18 02:50:12;;;;;;;4.93;4.53;;;18.40;99.90;;;;;;5055644;28;20164;-79
2022/10/18 02:52:37;;;;;;;4.78;4.38;;;18.30;99.90;;;;;;5054217;28;20171;-79
2022/10/18 02:55:04;;;;;;;4.90;4.50;;;18.30;99.90;;;;;;5055412;28;20583;-79
2022/10/18 02:57:30;;;;;;;4.88;4.47;;;18.30;99.90;;;;;;5054928;28;20206;-78
2022/10/18 02:59:55;;;;;;;11.80;5.18;;;18.30;99.90;;;;;;5055332;28;20199;-79
2022/10/18 03:02:21;;;;;;;10.90;7.30;;;18.30;99.90;;;;;;5054941;28;20589;-78
2022/10/18 03:04:46;;;;;;;10.98;8.93;;;18.30;99.90;;;;;;5055178;28;20166;-79
2022/10/18 03:07:12;;;;;;;27.48;8.52;;;18.30;99.90;;;;;;5054841;28;20649;-90
2022/10/18 03:09:38;;;;;;;8.68;7.88;;;18.10;99.90;;;;;;5054974;28;20173;-79
2022/10/18 03:12:04;;;;;;;8.57;7.78;;;18.10;99.90;;;;;;5054934;28;20191;-88
2022/10/18 03:14:29;;;;;;;13.75;8.65;;;18.20;99.90;;;;;;5055602;28;20179;-80
2022/10/18 03:16:55;;;;;;;14.43;9.73;;;18.20;99.90;;;;;;5061867;28;20211;-79
2022/10/18 03:19:21;;;;;;;12.85;10.43;;;18.20;99.90;;;;;;5074804;28;20203;-78
2022/10/18 03:21:46;;;;;;;11.25;10.15;;;18.30;99.90;;;;;;5057761;28;20256;-79
2022/10/18 03:24:12;;;;;;;26.83;12.50;;;18.20;99.90;;;;;;5055899;28;20575;-80
2022/10/18 03:26:37;;;;;;;15.02;12.05;;;18.00;99.90;;;;;;5054948;28;20195;-81
2022/10/18 03:29:03;;;;;;;12.52;11.18;;;17.90;99.90;;;;;;5057575;28;20175;-83
2022/10/18 03:31:30;;;;;;;18.05;12.27;;;18.00;99.90;;;;;;5066163;28;20668;-80
2022/10/18 03:33:55;;;;;;;12.70;11.43;;;18.20;99.90;;;;;;5065191;28;20168;-91
2022/10/18 03:36:22;;;;;;;12.65;11.32;;;18.20;99.90;;;;;;5058074;28;20657;-79
2022/10/18 03:38:48;;;;;;;15.43;10.23;;;18.20;99.90;;;;;;5064260;28;20183;-79
2022/10/18 03:41:15;;;;;;;16.08;12.27;;;18.30;99.90;;;;;;5070206;28;20316;-79
2022/10/18 03:43:40;;;;;;;15.27;11.05;;;18.30;99.90;;;;;;5058492;28;20160;-80
2022/10/18 03:46:06;;;;;;;15.40;12.55;;;18.10;99.90;;;;;;5063279;28;20190;-79
2022/10/18 03:48:32;;;;;;;13.55;11.70;;;18.00;99.90;;;;;;5064340;28;20171;-80
2022/10/18 03:50:57;;;;;;;20.85;12.70;;;18.10;99.90;;;;;;5060593;28;20218;-79
2022/10/18 03:53:23;;;;;;;19.33;12.63;;;18.10;99.90;;;;;;5061740;28;20170;-79
2022/10/18 03:55:53;;;;;;;15.30;11.57;;;18.20;99.90;;;;;;5064452;28;20191;-79
2022/10/18 03:58:20;;;;;;;16.00;11.63;;;18.20;99.90;;;;;;5061828;28;20163;-80
2022/10/18 04:00:50;;;;;;;15.30;12.00;;;17.90;99.90;;;;;;5059772;28;20227;-90
2022/10/18 04:03:16;;;;;;;14.40;12.07;;;18.00;99.90;;;;;;5060575;28;20167;-80
2022/10/18 04:05:41;;;;;;;13.52;11.90;;;18.10;99.90;;;;;;5060300;28;20199;-79
2022/10/18 04:08:07;;;;;;;11.77;10.55;;;18.00;99.90;;;;;;5060084;28;20652;-80
2022/10/18 04:10:33;;;;;;;21.13;11.93;;;18.00;99.90;;;;;;5055824;28;20159;-78
2022/10/18 04:12:58;;;;;;;11.73;10.35;;;18.10;99.90;;;;;;5055581;28;20167;-79
2022/10/18 04:15:24;;;;;;;16.60;10.98;;;17.90;99.90;;;;;;5055591;28;20203;-79
2022/10/18 04:17:50;;;;;;;12.18;10.75;;;17.80;99.90;;;;;;5054410;28;20266;-79
2022/10/18 04:20:15;;;;;;;12.38;11.18;;;17.80;99.90;;;;;;5055573;28;20195;-79
2022/10/18 04:22:41;;;;;;;20.60;11.45;;;17.90;99.90;;;;;;5055593;28;20174;-79
2022/10/18 04:25:07;;;;;;;17.77;10.93;;;17.80;99.90;;;;;;5053733;28;20182;-79
2022/10/18 04:27:32;;;;;;;19.63;12.05;;;17.50;99.90;;;;;;5054963;28;20640;-79
2022/10/18 04:29:58;;;;;;;13.23;11.77;;;17.70;99.90;;;;;;5055729;28;20167;-79
2022/10/18 04:32:26;;;;;;;15.13;12.57;;;17.80;99.90;;;;;;5054454;28;20167;-79
2022/10/18 04:34:51;;;;;;;15.85;11.70;;;17.80;99.90;;;;;;5053991;28;20535;-91
2022/10/18 04:37:17;;;;;;;19.27;12.25;;;17.70;99.90;;;;;;5053919;28;20195;-79
2022/10/18 04:39:47;;;;;;;17.60;12.30;;;17.70;99.90;;;;;;5059519;28;20288;-79
2022/10/18 04:42:13;;;;;;;13.85;12.20;;;17.60;99.90;;;;;;5057897;28;20218;-83
2022/10/18 04:44:38;;;;;;;15.95;11.10;;;17.50;99.90;;;;;;5058231;28;20191;-79
2022/10/18 04:47:05;;;;;;;18.08;11.48;;;17.40;99.90;;;;;;5059381;28;20194;-80
2022/10/18 04:49:31;;;;;;;12.82;10.98;;;17.30;99.90;;;;;;5060019;28;20187;-80
2022/10/18 04:51:57;;;;;;;13.43;10.32;;;17.40;99.90;;;;;;5057737;28;20163;-79
2022/10/18 04:54:26;;;;;;;15.93;10.38;;;17.60;99.90;;;;;;5056216;28;20174;-79
2022/10/18 04:56:51;;;;;;;22.23;11.60;;;17.70;99.90;;;;;;5061460;28;20191;-79
2022/10/18 04:59:17;;;;;;;15.25;10.80;;;17.80;99.90;;;;;;5056783;28;20182;-78
2022/10/18 05:01:42;;;;;;;17.30;10.50;;;17.60;99.90;;;;;;5059175;28;20213;-79
2022/10/18 05:04:08;;;;;;;20.73;10.90;;;17.40;99.90;;;;;;5064926;28;20206;-79
2022/10/18 05:06:34;;;;;;;14.93;10.73;;;17.40;99.90;;;;;;5063397;28;20194;-78
2022/10/18 05:08:59;;;;;;;16.80;10.48;;;17.50;99.90;;;;;;5063220;28;20173;-78
2022/10/18 05:11:25;;;;;;;19.42;12.68;;;17.50;99.90;;;;;;5057881;28;20187;-79
2022/10/18 05:13:51;;;;;;;17.38;11.55;;;17.50;99.90;;;;;;5061186;28;20197;-79
2022/10/18 05:16:17;;;;;;;15.98;10.63;;;17.40;99.90;;;;;;5054891;28;20237;-79
2022/10/18 05:18:43;;;;;;;15.00;10.30;;;17.60;99.90;;;;;;5052452;28;20198;-80
2022/10/18 05:21:08;;;;;;;17.05;12.02;;;17.80;99.90;;;;;;5052418;28;20230;-79
2022/10/18 05:23:34;;;;;;;19.38;11.35;;;18.00;99.90;;;;;;5051301;28;20249;-80
2022/10/18 05:26:05;;;;;;;14.10;11.13;;;18.00;99.90;;;;;;5052373;28;20593;-79
2022/10/18 05:28:31;;;;;;;13.13;11.38;;;17.90;99.90;;;;;;5054527;28;20233;-79
2022/10/18 05:31:01;;;;;;;19.90;12.15;;;18.00;99.90;;;;;;5058988;28;20265;-79
2022/10/18 05:33:28;;;;;;;17.55;11.57;;;17.90;99.90;;;;;;5057304;28;20570;-79
2022/10/18 05:35:54;;;;;;;17.48;10.30;;;17.80;99.90;;;;;;5056349;28;20210;-78
2022/10/18 05:38:20;;;;;;;22.08;11.93;;;17.70;99.90;;;;;;5056125;28;20163;-78
2022/10/18 05:40:45;;;;;;;20.50;10.75;;;17.70;99.90;;;;;;5053391;28;20256;-78
2022/10/18 05:43:11;;;;;;;18.02;10.77;;;17.80;99.90;;;;;;5052012;28;20183;-78
2022/10/18 05:45:36;;;;;;;16.17;11.60;;;17.70;99.90;;;;;;5050500;28;20190;-78
2022/10/18 05:48:03;;;;;;;18.65;11.85;;;17.70;99.90;;;;;;5051908;28;20186;-79
2022/10/18 05:50:29;;;;;;;18.15;10.38;;;17.80;99.90;;;;;;5053612;28;20234;-80
2022/10/18 05:52:56;;;;;;;15.80;10.65;;;17.80;99.90;;;;;;5056836;28;20187;-79
2022/10/18 05:55:22;;;;;;;19.67;10.77;;;17.70;99.90;;;;;;5065265;28;20198;-78
2022/10/18 05:57:51;;;;;;;14.57;10.10;;;17.70;99.90;;;;;;5055745;28;20250;-79
2022/10/18 06:00:17;;;;;;;16.80;11.27;;;17.80;99.90;;;;;;5051333;28;20671;-78
2022/10/18 06:02:43;;;;;;;15.63;11.02;;;17.90;99.90;;;;;;5052181;28;20159;-79
2022/10/18 06:05:09;;;;;;;18.75;11.40;;;17.90;99.90;;;;;;5052963;28;20526;-78
2022/10/18 06:07:34;;;;;;;19.73;11.93;;;18.00;99.90;;;;;;5056080;28;20167;-78
2022/10/18 06:10:00;;;;;;;17.08;11.05;;;18.00;99.90;;;;;;5055999;28;20163;-78
2022/10/18 06:12:25;;;;;;;18.92;12.38;;;17.90;99.90;;;;;;5054656;28;20171;-78
2022/10/18 06:14:51;;;;;;;17.60;11.15;;;17.50;99.90;;;;;;5055625;28;20189;-78
2022/10/18 06:17:17;;;;;;;15.23;10.77;;;17.50;99.90;;;;;;5054614;28;20189;-78
2022/10/18 06:19:43;;;;;;;16.20;11.00;;;17.60;99.90;;;;;;5055711;28;20530;-90
2022/10/18 06:22:10;;;;;;;21.33;10.82;;;17.60;99.90;;;;;;5055665;28;20225;-78
2022/10/18 06:24:35;;;;;;;15.00;11.07;;;17.60;99.90;;;;;;5055938;28;20197;-78
2022/10/18 06:27:07;;;;;;;13.65;10.38;;;17.40;99.90;;;;;;5055807;28;20190;-78
2022/10/18 06:29:32;;;;;;;16.40;10.98;;;17.40;99.90;;;;;;5055891;28;20270;-79
2022/10/18 06:31:58;;;;;;;17.80;10.70;;;17.40;99.90;;;;;;5055335;28;20199;-79
2022/10/18 06:34:23;;;;;;;17.05;11.77;;;17.50;99.90;;;;;;5053836;28;20225;-79
2022/10/18 06:36:49;;;;;;;30.10;10.68;;;17.60;99.90;;;;;;5055587;28;20193;-79
2022/10/18 06:39:14;;;;;;;19.95;12.27;;;17.60;99.90;;;;;;5054166;28;20221;-79
2022/10/18 06:41:40;;;;;;;15.63;10.45;;;17.70;99.90;;;;;;5054163;28;20206;-79
2022/10/18 06:44:12;;;;;;;21.73;11.60;;;17.70;99.90;;;;;;5055877;28;20526;-79
2022/10/18 06:46:42;;;;;;;28.80;11.90;;;17.70;99.90;;;;;;5055685;28;20179;-78
2022/10/18 06:49:07;;;;;;;14.02;10.90;;;17.60;99.90;;;;;;5056127;28;20207;-86
2022/10/18 06:51:33;;;;;;;20.48;11.35;;;17.60;99.90;;;;;;5055441;28;20623;-83
2022/10/18 06:53:59;;;;;;;15.13;11.75;;;17.30;99.90;;;;;;5054145;28;20266;-78
2022/10/18 06:56:24;;;;;;;20.25;12.25;;;17.20;99.90;;;;;;5055118;28;20692;-88
2022/10/18 06:58:50;;;;;;;24.85;14.10;;;17.30;99.90;;;;;;5055475;28;20186;-78
2022/10/18 07:01:16;;;;;;;23.63;13.05;;;17.40;99.90;;;;;;5055506;28;20206;-79
2022/10/18 07:03:43;;;;;;;35.17;13.73;;;17.50;99.90;;;;;;5055571;28;20163;-78
2022/10/18 07:06:11;;;;;;;24.92;13.05;;;17.40;99.90;;;;;;5053803;28;20268;-81
2022/10/18 07:08:38;;;;;;;29.50;12.10;;;17.50;99.90;;;;;;5055107;28;20169;-78
2022/10/18 07:11:05;;;;;;;26.98;11.25;;;17.40;99.90;;;;;;5055006;28;20649;-79
2022/10/18 07:13:31;;;;;;;22.23;12.43;;;17.50;99.90;;;;;;5055043;28;20232;-78
2022/10/18 07:16:01;;;;;;;28.52;12.40;;;17.60;99.90;;;;;;5054892;28;20191;-81
2022/10/18 07:18:26;;;;;;;28.15;13.15;;;17.60;99.90;;;;;;5054090;28;20574;-80
2022/10/18 07:20:52;;;;;;;26.65;12.55;;;17.40;99.90;;;;;;5054459;28;20229;-80
2022/10/18 07:23:19;;;;;;;16.83;11.43;;;17.30;99.90;;;;;;5053132;28;20163;-78
2022/10/18 07:25:46;;;;;;;24.02;13.38;;;17.20;99.90;;;;;;5054650;28;20183;-79
2022/10/18 07:28:11;;;;;;;26.00;13.55;;;17.20;99.90;;;;;;5054643;28;20167;-79
2022/10/18 07:30:37;;;;;;;24.00;12.63;;;17.30;99.90;;;;;;5054640;28;20163;-79
2022/10/18 07:33:03;;;;;;;26.70;12.68;;;17.50;99.90;;;;;;5052590;28;20652;-79
2022/10/18 07:35:28;;;;;;;25.02;12.40;;;17.50;99.90;;;;;;5052957;28;20242;-85
2022/10/18 07:37:54;;;;;;;20.73;12.63;;;17.60;99.90;;;;;;5054274;28;20162;-80
2022/10/18 07:40:22;;;;;;;20.88;12.57;;;17.60;99.90;;;;;;5054425;28;20274;-87
2022/10/18 07:42:48;;;;;;;26.77;13.60;;;17.70;99.90;;;;;;5055142;28;20171;-82
2022/10/18 07:45:13;;;;;;;17.25;13.73;;;17.70;99.90;;;;;;5044864;28;20629;-87
2022/10/18 07:47:39;;;;;;;16.50;13.43;;;17.90;99.90;;;;;;5049536;28;20190;-79
2022/10/18 07:50:05;;;;;;;24.75;12.57;;;17.90;99.90;;;;;;5050026;28;20173;-83
2022/10/18 07:52:31;;;;;;;19.08;12.50;;;17.90;99.90;;;;;;5051615;28;20171;-80
2022/10/18 07:54:56;;;;;;;17.10;12.65;;;17.80;99.90;;;;;;5050883;28;20159;-78
2022/10/18 07:57:22;;;;;;;25.98;12.95;;;17.90;99.90;;;;;;5052211;28;20275;-78
2022/10/18 07:59:51;;;;;;;29.10;13.63;;;18.00;99.90;;;;;;5051226;28;20174;-83
2022/10/18 08:02:16;;;;;;;25.80;11.93;;;17.90;99.90;;;;;;5052667;28;20199;-77
2022/10/18 08:04:42;;;;;;;21.77;11.98;;;17.60;99.90;;;;;;5051392;28;20221;-90
2022/10/18 08:07:08;;;;;;;22.60;10.43;;;17.60;99.90;;;;;;5051813;28;20187;-78
2022/10/18 08:09:33;;;;;;;26.80;12.55;;;17.70;99.90;;;;;;5053060;28;20201;-80
2022/10/18 08:11:59;;;;;;;23.50;12.38;;;17.90;99.90;;;;;;5053211;28;20270;-79
2022/10/18 08:14:24;;;;;;;38.95;11.98;;;18.10;99.90;;;;;;5052706;28;20218;-79
2022/10/18 08:16:50;;;;;;;29.95;10.93;;;18.20;99.90;;;;;;5065351;28;20218;-77
2022/10/18 08:19:16;;;;;;;20.58;11.18;;;18.10;99.90;;;;;;5059357;28;20186;-77
2022/10/18 08:21:41;;;;;;;18.85;9.38;;;18.00;99.90;;;;;;5034913;28;20630;-78
2022/10/18 08:24:07;;;;;;;13.45;8.35;;;18.10;99.90;;;;;;5032472;28;20186;-79
2022/10/18 08:26:32;;;;;;;15.63;7.75;;;18.20;99.90;;;;;;5050893;28;20234;-79
2022/10/18 08:28:58;;;;;;;22.63;7.15;;;18.20;99.90;;;;;;5051918;28;20170;-78
2022/10/18 08:31:24;;;;;;;24.35;7.03;;;18.10;99.90;;;;;;5052528;28;20707;-79
2022/10/18 08:33:50;;;;;;;21.30;6.57;;;18.20;99.90;;;;;;5051335;28;20175;-79
2022/10/18 08:36:18;;;;;;;16.90;6.32;;;18.20;99.90;;;;;;5052030;28;20741;-79
2022/10/18 08:38:43;;;;;;;19.77;5.90;;;18.20;99.90;;;;;;5051551;28;20825;-80
2022/10/18 08:41:40;;;;;;;17.80;5.38;;;18.20;99.90;;;;;;5052107;28;20242;-79
2022/10/18 08:44:23;;;;;;;18.33;5.13;;;18.10;99.90;;;;;;5051777;28;20564;-80
2022/10/18 08:46:53;;;;;;;17.90;4.70;;;18.20;99.90;;;;;;5050088;28;20207;-78
2022/10/18 08:49:40;;;;;;;22.08;6.03;;;18.40;99.90;;;;;;5050867;28;20189;-79
2022/10/18 08:52:33;;;;;;;28.95;5.60;;;18.20;99.90;;;;;;5051509;28;20197;-79
2022/10/18 08:55:23;;;;;;;16.70;5.28;;;18.30;99.90;;;;;;5043382;28;20228;-79
2022/10/18 08:57:50;;;;;;;19.02;5.68;;;18.20;99.90;;;;;;5051448;28;20633;-79
2022/10/18 09:00:17;;;;;;;16.98;5.30;;;18.00;99.90;;;;;;5051346;28;20167;-79
2022/10/18 09:03:11;;;;;;;18.65;6.13;;;18.20;99.90;;;;;;5050218;28;20183;-81
2022/10/18 09:05:55;;;;;;;25.33;6.22;;;18.30;99.90;;;;;;5051628;28;20301;-83
2022/10/18 09:08:48;;;;;;;28.00;6.65;;;18.30;99.90;;;;;;5053104;28;20163;-90
2022/10/18 09:11:13;;;;;;;17.77;6.00;;;18.40;99.90;;;;;;5052624;28;20225;-79
2022/10/18 09:13:42;;;;;;;16.15;4.88;;;18.50;99.90;;;;;;5052253;28;20539;-80
2022/10/18 09:16:14;;;;;;;19.38;5.80;;;18.70;99.90;;;;;;5053613;28;20244;-82
2022/10/18 09:18:50;;;;;;;17.80;5.97;;;18.60;99.90;;;;;;5055001;28;20711;-78
2022/10/18 09:21:19;;;;;;;23.48;6.60;;;18.60;99.90;;;;;;5051495;28;20210;-78
2022/10/18 09:24:00;;;;;;;20.40;8.32;;;18.60;99.90;;;;;;5052937;28;20234;-78
2022/10/18 09:26:26;;;;;;;17.30;7.80;;;18.40;99.90;;;;;;5050954;28;20241;-78
2022/10/18 09:29:27;;;;;;;16.70;7.43;;;18.30;99.90;;;;;;5052307;28;20167;-78
2022/10/18 09:32:21;;;;;;;23.23;8.82;;;18.10;99.90;;;;;;5048903;28;20187;-78
2022/10/18 09:35:02;;;;;;;18.60;7.93;;;18.10;99.90;;;;;;5033350;28;20171;-78
2022/10/18 09:37:31;;;;;;;20.98;7.45;;;18.10;99.90;;;;;;5052866;28;20213;-90
2022/10/18 09:40:05;;;;;;;15.95;7.80;;;18.30;99.90;;;;;;5051791;28;20171;-78
2022/10/18 09:42:38;;;;;;;12.15;6.65;;;18.30;99.90;;;;;;5052193;28;20175;-92
2022/10/18 09:45:21;;;;;;;12.93;6.45;;;18.20;99.90;;;;;;5052642;28;20166;-78
2022/10/18 09:48:14;;;;;;;16.73;7.22;;;18.10;99.90;;;;;;5052534;28;20668;-84
2022/10/18 09:50:50;;;;;;;16.13;7.55;;;18.20;99.90;;;;;;5052564;28;20205;-78
2022/10/18 09:53:52;;;;;;;29.05;7.75;;;18.30;99.90;;;;;;5053666;28;20185;-79
2022/10/18 09:56:28;;;;;;;30.33;6.53;;;18.30;99.90;;;;;;5052387;28;20189;-80
2022/10/18 09:58:53;;;;;;;14.43;6.43;;;18.30;99.90;;;;;;5052694;28;20174;-80
2022/10/18 10:01:23;;;;;;;22.65;8.18;;;18.40;99.90;;;;;;5055826;28;20203;-79
2022/10/18 10:03:49;;;;;;;17.55;8.32;;;18.40;99.90;;;;;;5052185;28;20178;-78
2022/10/18 10:06:21;;;;;;;19.60;8.30;;;18.50;99.90;;;;;;5052654;28;20187;-79
2022/10/18 10:08:52;;;;;;;27.25;8.48;;;18.70;99.90;;;;;;5053611;28;20175;-79
2022/10/18 10:11:56;;;;;;;12.88;7.65;;;18.80;99.90;;;;;;5056331;28;20698;-86
2022/10/18 10:14:26;;;;;;;16.48;7.80;;;18.90;99.90;;;;;;5057033;28;20206;-78
2022/10/18 10:17:04;;;;;;;14.90;6.70;;;18.90;99.90;;;;;;5052314;28;20273;-78
2022/10/18 10:19:57;;;;;;;11.73;5.50;;;18.80;99.90;;;;;;5053465;28;20575;-78
2022/10/18 10:22:34;;;;;;;13.32;4.63;;;19.00;99.90;;;;;;5053373;28;20230;-79
2022/10/18 10:25:00;;;;;;;20.80;5.63;;;19.00;99.90;;;;;;5051988;28;20179;-77
2022/10/18 10:27:39;;;;;;;14.02;6.10;;;19.20;99.90;;;;;;5050764;28;20191;-78
2022/10/18 10:30:25;;;;;;;18.15;5.22;;;19.20;99.90;;;;;;5052497;28;20171;-77
2022/10/18 10:32:52;;;;;;;16.50;4.28;;;19.10;99.90;;;;;;5059034;28;20167;-81
2022/10/18 10:35:38;;;;;;;15.60;3.88;;;19.20;99.90;;;;;;5065982;28;20667;-78
2022/10/18 10:38:05;;;;;;;12.85;4.32;;;19.20;99.90;;;;;;5052985;28;20164;-78
2022/10/18 10:40:49;;;;;;;17.08;3.58;;;19.30;99.90;;;;;;5051666;28;20195;-78
2022/10/18 10:43:20;;;;;;;14.38;2.78;;;19.40;99.90;;;;;;5052016;28;20167;-78
2022/10/18 10:45:56;;;;;;;6.43;3.25;;;19.40;99.90;;;;;;5057322;28;20274;-78
2022/10/18 10:48:24;;;;;;;12.15;3.17;;;19.50;99.90;;;;;;5057579;28;20155;-93
2022/10/18 10:50:53;;;;;;;5.85;2.40;;;19.60;99.90;;;;;;5035987;28;20177;-80
2022/10/18 10:53:35;;;;;;;21.67;3.08;;;19.40;99.90;;;;;;5039984;28;20217;-78
2022/10/18 10:56:03;;;;;;;18.95;2.97;;;19.60;99.90;;;;;;5041180;28;20584;-80
2022/10/18 10:58:34;;;;;;;12.82;2.70;;;19.80;99.90;;;;;;5039376;28;20172;-79
2022/10/18 11:01:27;;;;;;;11.35;3.00;;;19.60;99.90;;;;;;5036233;28;20597;-79
2022/10/18 11:03:56;;;;;;;10.82;2.80;;;19.40;99.90;;;;;;5035250;28;20257;-79
2022/10/18 11:06:47;;;;;;;13.43;2.65;;;19.40;99.90;;;;;;5035120;28;20187;-79
2022/10/18 11:09:23;;;;;;;12.25;2.65;;;19.50;99.90;;;;;;5037642;28;20269;-79
2022/10/18 11:12:10;;;;;;;16.92;2.80;;;19.50;99.90;;;;;;5038310;28;20182;-78
2022/10/18 11:14:40;;;;;;;10.35;2.45;;;19.30;99.90;;;;;;5035393;28;20183;-79
2022/10/18 11:17:21;;;;;;;11.52;2.97;;;19.10;99.90;;;;;;5034810;28;20204;-81
2022/10/18 11:20:08;;;;;;;16.98;2.90;;;19.20;99.90;;;;;;5033682;28;20175;-78
2022/10/18 11:22:43;;;;;;;13.02;2.33;;;19.40;99.90;;;;;;5033940;28;20198;-84
2022/10/18 11:25:13;;;;;;;8.35;2.25;;;19.40;99.90;;;;;;5036563;28;20289;-92
2022/10/18 11:27:53;;;;;;;6.70;1.88;;;19.20;99.90;;;;;;5036838;28;20241;-79
2022/10/18 11:31:02;;;;;;;9.35;2.10;;;19.20;99.90;;;;;;5036254;28;20196;-92
2022/10/18 11:33:35;;;;;;;10.23;1.88;;;19.30;99.90;;;;;;5034986;28;20172;-80
2022/10/18 11:36:09;;;;;;;10.23;2.95;;;19.20;99.90;;;;;;5042755;28;20194;-84
2022/10/18 11:38:56;;;;;;;18.08;2.15;;;19.30;99.90;;;;;;5043348;28;20164;-78
2022/10/18 11:41:48;;;;;;;22.77;2.65;;;19.20;99.90;;;;;;5041031;28;20207;-81
2022/10/18 11:44:31;;;;;;;10.95;1.88;;;19.20;99.90;;;;;;4994437;28;20243;-78
2022/10/18 11:47:07;;;;;;;18.10;2.67;;;19.20;99.90;;;;;;5042489;28;20241;-78
2022/10/18 11:49:42;;;;;;;15.20;2.50;;;19.50;99.90;;;;;;5041096;28;20228;-80
2022/10/18 11:52:50;;;;;;;10.20;2.15;;;19.80;99.90;;;;;;5040813;28;20163;-79
2022/10/18 11:55:38;;;;;;;13.80;2.05;;;19.80;99.90;;;;;;5037526;28;20218;-79
2022/10/18 11:58:29;;;;;;;9.93;2.47;;;19.60;99.90;;;;;;5035973;28;20163;-79
2022/10/18 12:01:20;;;;;;;4.35;1.80;;;19.50;99.90;;;;;;5036371;28;20287;-85
2022/10/18 12:03:58;;;;;;;9.82;2.25;;;19.50;99.90;;;;;;5034612;28;20172;-91
2022/10/18 12:06:29;;;;;;;7.65;2.05;;;19.50;99.90;;;;;;5034507;28;20191;-80
2022/10/18 12:09:00;;;;;;;9.57;1.70;;;19.40;99.90;;;;;;5034512;28;20160;-80
2022/10/18 12:11:31;;;;;;;14.75;2.33;;;19.50;99.90;;;;;;5034421;28;20229;-80
2022/10/18 12:14:01;;;;;;;8.30;2.20;;;19.70;99.90;;;;;;5034036;28;20186;-78
2022/10/18 12:16:31;;;;;;;14.20;2.17;;;19.90;99.90;;;;;;5033853;28;20199;-79
2022/10/18 12:19:03;;;;;;;10.05;1.80;;;19.90;99.90;;;;;;5033482;28;20233;-82
2022/10/18 12:21:32;;;;;;;25.42;2.97;;;19.80;99.90;;;;;;5034814;28;20219;-83
2022/10/18 12:24:09;;;;;;;10.65;2.13;;;19.80;99.90;;;;;;5034332;28;20242;-80
2022/10/18 12:26:36;;;;;;;7.60;1.38;;;19.70;99.90;;;;;;5034246;28;20191;-79
2022/10/18 12:29:39;;;;;;;5.75;2.13;;;19.90;99.90;;;;;;5035124;28;20168;-87
2022/10/18 12:32:12;;;;;;;7.78;1.33;;;20.00;99.90;;;;;;5021393;28;20285;-80
2022/10/18 12:34:56;;;;;;;10.43;1.80;;;19.90;99.90;;;;;;5033735;28;20180;-80
2022/10/18 12:37:27;;;;;;;17.00;2.72;;;19.80;99.90;;;;;;5034113;28;20199;-79
2022/10/18 12:40:01;;;;;;;5.35;1.15;;;19.90;99.90;;;;;;5033673;28;20188;-80
2022/10/18 12:42:29;;;;;;;8.40;2.28;;;20.00;99.90;;;;;;5033587;28;20310;-79
2022/10/18 12:45:05;;;;;;;10.63;1.98;;;20.10;99.90;;;;;;5034196;28;20168;-80
2022/10/18 12:47:31;;;;;;;16.10;2.03;;;20.20;99.90;;;;;;5033322;28;20213;-79
2022/10/18 12:50:02;;;;;;;10.05;2.05;;;19.90;99.90;;;;;;5033778;28;20684;-78
2022/10/18 12:52:32;;;;;;;4.40;1.33;;;19.80;99.90;;;;;;5033626;28;20160;-78
2022/10/18 12:55:04;;;;;;;12.82;2.05;;;19.50;99.90;;;;;;5033716;28;20204;-81